Barnstable Municipal Boardman Polando Field Hyannis US
ICAO: KHYA
IATA: HYA
Category: Medium
Scheduled Services: Yes

Elevation: 54 ft
TransAlt. 18000 ft.

Airport Communications:
CAPE APP/DEP:118.2
ATIS:123.8
CLNC DEL:125.15
CTAF:119.5
GND:121.9
BRIDGEPORT RDO:126.425
HYANNIS TWR:119.5
UNICOM:122.95

KHYA Zoom In..

Runways:

(A) RW 06 length 5425 ft width 150 ft
---- / hdg 66

(B) RW 15 length 5253 ft width 150 ft
ILS 108.95 / hdg 156

(C) RW 24 length 5425 ft width 150 ft
ILS 109.15 / hdg 246

(D) RW 33 length 5253 ft width 150 ft
---- / hdg 336

Location; KHYA
Day. 24 / Time. 07.56 Zulu
* Altimeter: 29.98
* Temperature: 13° c. 55.4°f.
* Wind from: 060° Speed 04 kn.
Dewpoint: 11° c.
Visibility: 10 Statute Miles.
Clouds: Clear (automated report).

KHYA 240756Z AUTO 06004KT 10SM CLR 13/11 A2998 RMK AO2 SLP151 T01280111


Wind From 060°
Speed 04 kn.

 
 
jpsmedia.com for Web Design SOUNDCLOUD worldairports.se 2018   terms of use